Time;durP1;ratioP1;P1;durP2;ratioP2;P2;SDS_P1;SDS_P2;PMS_P1;PMS_P2;Temp;Humidity;BMP_temperature;BMP_pressure;BME280_temperature;BME280_humidity;BME280_pressure;Samples;Min_cycle;Max_cycle;Signal;HPM_P1;HPM_P2
2024/01/25 00:01:13;;;;;;;7.22;2.78;;;21.30;37.10;;;;;;5114561;28;20492;-57
2024/01/25 00:03:39;;;;;;;7.13;2.47;;;21.20;37.00;;;;;;5114123;28;20055;-55
2024/01/25 00:06:05;;;;;;;7.03;2.72;;;21.20;37.00;;;;;;5113343;28;20054;-57
2024/01/25 00:08:31;;;;;;;4.97;2.30;;;21.20;37.00;;;;;;5113134;28;20048;-55
2024/01/25 00:10:57;;;;;;;6.57;2.35;;;21.20;37.00;;;;;;5113763;28;20030;-56
2024/01/25 00:13:23;;;;;;;5.75;2.10;;;21.20;37.00;;;;;;5112340;28;20024;-55
2024/01/25 00:15:49;;;;;;;5.57;2.20;;;21.20;37.00;;;;;;5114305;28;20034;-57
2024/01/25 00:18:14;;;;;;;7.25;2.78;;;21.20;37.00;;;;;;5112431;28;20161;-56
2024/01/25 00:20:40;;;;;;;6.85;2.70;;;21.20;37.00;;;;;;5111776;28;20042;-55
2024/01/25 00:23:07;;;;;;;4.95;2.20;;;21.20;37.00;;;;;;5112717;28;20028;-53
2024/01/25 00:25:32;;;;;;;6.32;2.40;;;21.20;37.00;;;;;;5096308;28;20032;-53
2024/01/25 00:27:58;;;;;;;8.60;2.83;;;21.20;37.00;;;;;;5113115;28;20076;-55
2024/01/25 00:30:24;;;;;;;7.30;2.78;;;21.20;37.00;;;;;;5113618;28;20038;-53
2024/01/25 00:32:50;;;;;;;9.15;2.50;;;21.20;37.00;;;;;;5113581;28;20028;-56
2024/01/25 00:35:16;;;;;;;5.80;2.22;;;21.20;37.00;;;;;;5113944;28;20044;-52
2024/01/25 00:37:42;;;;;;;5.25;1.98;;;21.10;36.90;;;;;;5113400;28;20114;-55
2024/01/25 00:40:08;;;;;;;6.28;2.30;;;21.10;36.90;;;;;;5113696;28;20028;-56
2024/01/25 00:42:42;;;;;;;6.00;2.33;;;21.10;36.90;;;;;;5113162;28;20112;-54
2024/01/25 00:45:08;;;;;;;5.07;2.17;;;21.10;36.90;;;;;;5113528;28;20024;-54
2024/01/25 00:47:34;;;;;;;7.43;2.67;;;21.10;36.90;;;;;;5112876;28;20031;-52
2024/01/25 00:50:00;;;;;;;6.50;2.28;;;21.10;37.50;;;;;;5114045;28;20024;-50
2024/01/25 00:52:26;;;;;;;5.38;2.38;;;21.10;36.80;;;;;;5113306;28;20023;-55
2024/01/25 00:54:52;;;;;;;5.97;2.72;;;21.10;36.80;;;;;;5112965;28;20085;-48
2024/01/25 00:57:18;;;;;;;5.40;2.28;;;21.10;36.80;;;;;;5113205;28;20035;-58
2024/01/25 00:59:44;;;;;;;6.40;2.08;;;21.10;36.80;;;;;;5092806;28;20038;-52
2024/01/25 01:02:12;;;;;;;6.70;2.47;;;21.10;36.80;;;;;;5113084;28;20039;-54
2024/01/25 01:04:39;;;;;;;5.97;2.13;;;21.10;36.80;;;;;;5113401;28;20453;-55
2024/01/25 01:07:05;;;;;;;7.95;2.95;;;21.10;36.80;;;;;;5112304;28;20039;-55
2024/01/25 01:09:31;;;;;;;6.03;2.30;;;21.10;36.80;;;;;;5094677;28;20459;-56
2024/01/25 01:11:57;;;;;;;8.77;2.65;;;21.10;36.80;;;;;;5113658;28;20058;-57
2024/01/25 01:14:23;;;;;;;6.63;2.38;;;21.10;36.80;;;;;;5112944;28;20106;-54
2024/01/25 01:16:50;;;;;;;5.93;2.35;;;21.00;36.70;;;;;;5112441;28;20031;-55
2024/01/25 01:19:16;;;;;;;4.88;1.80;;;21.10;36.80;;;;;;5112562;28;20363;-53
2024/01/25 01:21:43;;;;;;;5.63;2.13;;;21.10;36.80;;;;;;5113428;28;20062;-54
2024/01/25 01:24:11;;;;;;;5.68;2.38;;;21.00;36.70;;;;;;5112801;28;20451;-55
2024/01/25 01:26:37;;;;;;;5.32;2.00;;;21.10;36.80;;;;;;5113051;28;20078;-53
2024/01/25 01:29:03;;;;;;;7.43;1.98;;;21.00;36.70;;;;;;5112873;28;20450;-55
2024/01/25 01:31:29;;;;;;;6.55;2.53;;;21.00;36.70;;;;;;5112995;28;20028;-53
2024/01/25 01:33:55;;;;;;;5.47;2.50;;;21.00;36.70;;;;;;5112410;28;20102;-52
2024/01/25 01:36:21;;;;;;;4.75;2.10;;;21.00;36.70;;;;;;5112440;28;20042;-54
2024/01/25 01:38:47;;;;;;;5.63;2.22;;;21.00;36.70;;;;;;5094875;28;20043;-55
2024/01/25 01:41:13;;;;;;;6.10;2.03;;;21.00;36.70;;;;;;5112701;28;20462;-53
2024/01/25 01:43:39;;;;;;;7.00;2.50;;;21.00;36.70;;;;;;5112897;28;20039;-54
2024/01/25 01:46:27;;;;;;;7.03;2.38;;;21.00;36.70;;;;;;5116147;28;20028;-56
2024/01/25 01:48:53;;;;;;;7.85;2.13;;;21.00;36.70;;;;;;5116232;28;20110;-52
2024/01/25 01:51:19;;;;;;;5.60;2.25;;;21.00;36.70;;;;;;5116707;28;20103;-55
2024/01/25 01:53:46;;;;;;;7.28;2.25;;;21.00;36.70;;;;;;5116917;28;20027;-56
2024/01/25 01:56:12;;;;;;;6.22;2.20;;;20.90;36.60;;;;;;5116708;28;20043;-55
2024/01/25 01:58:39;;;;;;;5.97;2.40;;;20.90;36.60;;;;;;5116846;28;20023;-55
2024/01/25 02:01:05;;;;;;;7.40;2.35;;;20.90;36.70;;;;;;5098725;28;20035;-56
2024/01/25 02:03:31;;;;;;;6.28;2.65;;;20.90;36.60;;;;;;5117211;28;20020;-53
2024/01/25 02:06:02;;;;;;;7.35;2.38;;;20.90;36.70;;;;;;5116359;28;20500;-56
2024/01/25 02:08:28;;;;;;;6.55;2.42;;;20.90;36.60;;;;;;5115873;28;20551;-57
2024/01/25 02:10:54;;;;;;;3.42;1.70;;;20.90;36.60;;;;;;5116767;28;20355;-56
2024/01/25 02:13:21;;;;;;;7.88;2.30;;;20.90;36.70;;;;;;5116383;28;20046;-58
2024/01/25 02:15:47;;;;;;;6.03;2.20;;;20.90;36.70;;;;;;5116731;28;20128;-53
2024/01/25 02:18:13;;;;;;;6.47;2.28;;;20.90;36.70;;;;;;5115351;28;20020;-55
2024/01/25 02:20:39;;;;;;;6.15;2.30;;;20.90;36.70;;;;;;5116366;28;20020;-55
2024/01/25 02:23:04;;;;;;;4.43;1.88;;;20.90;36.70;;;;;;5116473;28;20415;-55
2024/01/25 02:25:30;;;;;;;7.55;2.47;;;20.90;36.70;;;;;;5116315;28;20397;-55
2024/01/25 02:27:56;;;;;;;6.28;2.38;;;20.80;36.60;;;;;;5097366;28;20358;-55
2024/01/25 02:30:22;;;;;;;5.93;2.40;;;20.90;36.70;;;;;;5116171;28;20020;-57
2024/01/25 02:32:47;;;;;;;5.22;2.00;;;20.90;36.70;;;;;;5115839;28;20027;-54
2024/01/25 02:35:13;;;;;;;5.22;1.90;;;20.90;36.60;;;;;;5115889;28;20051;-54
2024/01/25 02:37:39;;;;;;;4.28;1.70;;;20.90;36.70;;;;;;5115423;28;20034;-52
2024/01/25 02:40:05;;;;;;;5.30;1.98;;;20.90;36.60;;;;;;5116472;28;20027;-53
2024/01/25 02:42:31;;;;;;;6.30;2.30;;;20.80;36.50;;;;;;5114726;28;20375;-52
2024/01/25 02:44:56;;;;;;;5.53;2.10;;;20.80;36.60;;;;;;5114849;28;20035;-56
2024/01/25 02:47:22;;;;;;;4.25;1.90;;;20.80;36.60;;;;;;5114065;28;20031;-55
2024/01/25 02:49:48;;;;;;;5.25;2.00;;;20.80;36.60;;;;;;5114317;28;20510;-56
2024/01/25 02:52:14;;;;;;;6.40;2.05;;;20.80;36.60;;;;;;5114785;28;20115;-54
2024/01/25 02:54:39;;;;;;;5.60;1.77;;;20.80;36.60;;;;;;5114671;28;20050;-55
2024/01/25 02:57:05;;;;;;;5.28;2.15;;;20.80;36.60;;;;;;5114106;28;20084;-54
2024/01/25 02:59:31;;;;;;;4.70;1.73;;;20.80;36.60;;;;;;5113946;28;20051;-53
2024/01/25 03:01:57;;;;;;;4.95;1.95;;;20.80;36.50;;;;;;5114472;28;20456;-54
2024/01/25 03:04:23;;;;;;;5.22;2.00;;;20.80;36.50;;;;;;5113902;28;20050;-53
2024/01/25 03:06:49;;;;;;;6.13;1.88;;;20.80;36.60;;;;;;5113525;28;20031;-55
2024/01/25 03:09:15;;;;;;;5.60;2.20;;;20.80;36.50;;;;;;5113620;28;20043;-51
2024/01/25 03:11:40;;;;;;;4.60;1.77;;;20.80;36.50;;;;;;5114337;28;20034;-50
2024/01/25 03:14:06;;;;;;;7.18;2.40;;;20.70;36.50;;;;;;5113343;28;20066;-57
2024/01/25 03:16:32;;;;;;;5.53;1.83;;;20.70;36.50;;;;;;5114163;28;20312;-55
2024/01/25 03:18:58;;;;;;;4.65;2.05;;;20.70;36.50;;;;;;5113310;28;20102;-53
2024/01/25 03:21:24;;;;;;;5.32;1.98;;;20.70;36.50;;;;;;5114350;28;20019;-53
2024/01/25 03:23:49;;;;;;;4.47;1.75;;;20.70;36.50;;;;;;5095501;28;20028;-56
2024/01/25 03:26:15;;;;;;;3.70;1.50;;;20.70;36.50;;;;;;5114145;28;20019;-53
2024/01/25 03:28:41;;;;;;;5.35;2.10;;;20.70;36.50;;;;;;5113474;28;20035;-54
2024/01/25 03:31:07;;;;;;;5.50;2.17;;;20.70;36.50;;;;;;5113857;28;20023;-55
2024/01/25 03:33:33;;;;;;;4.85;1.90;;;20.70;36.50;;;;;;5096005;28;20067;-50
2024/01/25 03:36:05;;;;;;;4.90;1.80;;;20.70;36.50;;;;;;5113951;28;20027;-56
2024/01/25 03:38:32;;;;;;;5.60;2.15;;;20.70;36.50;;;;;;5114222;28;20031;-55
2024/01/25 03:40:58;;;;;;;6.30;2.10;;;20.70;36.50;;;;;;5072894;28;1156167;-56
2024/01/25 03:43:27;;;;;;;4.85;2.10;;;20.70;36.50;;;;;;5114753;28;20103;-55
2024/01/25 03:45:53;;;;;;;4.90;1.80;;;20.70;36.50;;;;;;5114436;28;20055;-53
2024/01/25 03:48:19;;;;;;;6.30;2.25;;;20.70;36.50;;;;;;5114450;28;20120;-57
2024/01/25 03:50:45;;;;;;;5.10;1.90;;;20.60;36.40;;;;;;5114501;28;20028;-51
2024/01/25 03:53:11;;;;;;;5.97;2.17;;;20.60;36.40;;;;;;5115219;28;20096;-51
2024/01/25 03:55:37;;;;;;;6.45;1.95;;;20.60;36.40;;;;;;5114555;28;20128;-54
2024/01/25 03:58:03;;;;;;;6.15;2.15;;;20.60;36.40;;;;;;5115240;28;20441;-53
2024/01/25 04:00:29;;;;;;;6.53;2.35;;;20.60;36.40;;;;;;5114507;28;20031;-52
2024/01/25 04:02:54;;;;;;;6.13;2.35;;;20.60;36.50;;;;;;5114655;28;20508;-51
2024/01/25 04:05:20;;;;;;;4.15;1.92;;;20.60;36.40;;;;;;5113820;28;20019;-53
2024/01/25 04:07:46;;;;;;;5.25;2.17;;;20.60;36.40;;;;;;5112829;28;20027;-48
2024/01/25 04:10:12;;;;;;;6.13;2.17;;;20.60;36.40;;;;;;5114606;28;20024;-51
2024/01/25 04:12:39;;;;;;;6.15;1.83;;;20.60;36.40;;;;;;5114402;28;20058;-50
2024/01/25 04:15:05;;;;;;;5.32;2.08;;;20.60;36.40;;;;;;5114284;28;20074;-57
2024/01/25 04:17:31;;;;;;;5.28;2.15;;;20.60;36.40;;;;;;5111217;28;20019;-52
2024/01/25 04:19:57;;;;;;;8.32;2.70;;;20.60;36.40;;;;;;5113397;28;20500;-53
2024/01/25 04:22:23;;;;;;;6.50;1.80;;;20.60;36.40;;;;;;5114330;28;20027;-54
2024/01/25 04:24:49;;;;;;;5.68;1.90;;;20.60;36.40;;;;;;5113845;28;20041;-55
2024/01/25 04:27:15;;;;;;;4.53;1.90;;;20.60;36.60;;;;;;5095109;28;20107;-55
2024/01/25 04:29:44;;;;;;;5.63;2.10;;;20.50;36.30;;;;;;5113948;28;20027;-51
2024/01/25 04:32:10;;;;;;;3.95;1.88;;;20.50;36.30;;;;;;5112891;28;20328;-52
2024/01/25 04:34:36;;;;;;;5.10;1.90;;;20.60;36.40;;;;;;5113446;28;20094;-49
2024/01/25 04:37:02;;;;;;;5.25;2.05;;;20.50;36.30;;;;;;5110817;28;20056;-53
2024/01/25 04:39:28;;;;;;;4.15;1.77;;;20.50;36.30;;;;;;5113902;28;20051;-52
2024/01/25 04:41:53;;;;;;;4.90;1.75;;;20.50;36.30;;;;;;5113289;28;20143;-52
2024/01/25 04:44:19;;;;;;;5.38;2.17;;;20.50;36.30;;;;;;5113239;28;20024;-58
2024/01/25 04:46:45;;;;;;;5.15;2.17;;;20.50;36.30;;;;;;5111109;28;20074;-56
2024/01/25 04:49:11;;;;;;;5.10;2.03;;;20.50;36.30;;;;;;5093918;28;20038;-57
2024/01/25 04:51:37;;;;;;;5.57;1.92;;;20.50;36.30;;;;;;5113114;28;20102;-55
2024/01/25 04:54:02;;;;;;;4.97;2.00;;;20.50;36.30;;;;;;5095364;28;20024;-53
2024/01/25 04:56:28;;;;;;;5.88;2.30;;;20.50;36.30;;;;;;5113108;28;20091;-54
2024/01/25 04:58:54;;;;;;;5.05;2.05;;;20.50;36.30;;;;;;5113328;28;20031;-57
2024/01/25 05:01:20;;;;;;;5.07;1.80;;;20.50;36.30;;;;;;5113122;28;20028;-50
2024/01/25 05:03:46;;;;;;;4.95;1.90;;;20.50;36.30;;;;;;5113372;28;20031;-55
2024/01/25 05:06:12;;;;;;;4.47;1.70;;;20.50;36.40;;;;;;5112506;28;20110;-53
2024/01/25 05:08:38;;;;;;;5.85;2.50;;;20.40;36.30;;;;;;5111773;28;20046;-50
2024/01/25 05:11:04;;;;;;;7.00;2.08;;;20.40;36.30;;;;;;5111573;28;20110;-55
2024/01/25 05:13:29;;;;;;;6.22;2.33;;;20.50;36.30;;;;;;5112999;28;20443;-54
2024/01/25 05:15:55;;;;;;;7.03;1.83;;;20.50;36.30;;;;;;5113218;28;20110;-58
2024/01/25 05:18:21;;;;;;;4.15;1.83;;;20.40;36.30;;;;;;5111232;28;20024;-56
2024/01/25 05:20:47;;;;;;;4.95;1.85;;;20.40;36.30;;;;;;5112706;28;20107;-56
2024/01/25 05:23:12;;;;;;;4.72;1.73;;;20.40;36.30;;;;;;5113652;28;20019;-54
2024/01/25 05:25:38;;;;;;;4.80;2.15;;;20.40;36.30;;;;;;5112919;28;20054;-55
2024/01/25 05:28:04;;;;;;;4.90;2.15;;;20.40;36.30;;;;;;5094604;28;20027;-53
2024/01/25 05:30:30;;;;;;;5.85;2.20;;;20.40;36.30;;;;;;5110559;28;20028;-52
2024/01/25 05:32:56;;;;;;;4.70;1.90;;;20.40;36.30;;;;;;5113640;28;20031;-53
2024/01/25 05:35:23;;;;;;;4.38;1.80;;;20.40;36.30;;;;;;5112420;28;20030;-54
2024/01/25 05:37:49;;;;;;;5.95;2.33;;;20.40;36.30;;;;;;5112510;28;20035;-56
2024/01/25 05:40:15;;;;;;;5.57;2.13;;;20.40;36.30;;;;;;5094725;28;20032;-57
2024/01/25 05:42:40;;;;;;;5.22;2.00;;;20.40;36.30;;;;;;5113012;28;20036;-54
2024/01/25 05:45:07;;;;;;;4.40;2.00;;;20.40;36.30;;;;;;5112721;28;20030;-54
2024/01/25 05:47:34;;;;;;;5.88;2.08;;;20.40;36.30;;;;;;5113126;28;20035;-51
2024/01/25 05:50:00;;;;;;;4.13;1.80;;;20.30;36.20;;;;;;5112689;28;20024;-51
2024/01/25 05:52:26;;;;;;;5.80;1.88;;;20.40;36.30;;;;;;5113205;28;20362;-55
2024/01/25 05:54:52;;;;;;;6.43;2.35;;;20.30;36.30;;;;;;5113100;28;20030;-51
2024/01/25 05:57:18;;;;;;;5.30;1.95;;;20.30;36.20;;;;;;5112478;28;20036;-53
2024/01/25 05:59:44;;;;;;;5.15;1.90;;;20.30;36.20;;;;;;5093935;28;20488;-56
2024/01/25 06:02:10;;;;;;;5.97;1.77;;;20.30;36.20;;;;;;5112032;28;20035;-51
2024/01/25 06:04:37;;;;;;;6.53;2.10;;;20.30;36.20;;;;;;5113518;28;20019;-54
2024/01/25 06:07:03;;;;;;;4.07;1.90;;;20.30;36.20;;;;;;5111934;28;20100;-57
2024/01/25 06:09:29;;;;;;;6.05;1.77;;;20.30;36.30;;;;;;5112629;28;20088;-51
2024/01/25 06:11:54;;;;;;;6.15;1.90;;;20.30;36.20;;;;;;5112511;28;20031;-54
2024/01/25 06:14:20;;;;;;;5.70;2.85;;;20.30;36.20;;;;;;5112657;28;20103;-54
2024/01/25 06:16:46;;;;;;;4.78;1.92;;;20.30;36.20;;;;;;5111374;28;20036;-55
2024/01/25 06:19:12;;;;;;;4.55;2.08;;;20.30;36.20;;;;;;5111994;28;20076;-52
2024/01/25 06:21:38;;;;;;;6.70;2.08;;;20.30;36.20;;;;;;5112574;28;20027;-54
2024/01/25 06:24:10;;;;;;;4.75;1.70;;;20.30;36.30;;;;;;5110848;28;20028;-52
2024/01/25 06:26:35;;;;;;;7.85;2.30;;;20.30;36.30;;;;;;5111854;28;20023;-52
2024/01/25 06:29:01;;;;;;;5.10;2.42;;;20.30;36.30;;;;;;5111987;28;20466;-52
2024/01/25 06:31:28;;;;;;;7.88;2.22;;;20.30;36.30;;;;;;5113715;28;20114;-53
2024/01/25 06:33:53;;;;;;;5.38;2.20;;;20.30;36.30;;;;;;5116005;28;20038;-52
2024/01/25 06:36:20;;;;;;;5.30;2.38;;;20.30;36.30;;;;;;5115079;28;20019;-52
2024/01/25 06:38:48;;;;;;;4.65;2.15;;;20.30;36.30;;;;;;5115698;28;20106;-55
2024/01/25 06:41:15;;;;;;;5.20;2.17;;;20.30;36.30;;;;;;5115455;28;20051;-56
2024/01/25 06:43:40;;;;;;;4.40;2.00;;;20.30;36.30;;;;;;5114991;28;20089;-54
2024/01/25 06:46:07;;;;;;;5.22;2.05;;;20.20;36.30;;;;;;5115650;28;20504;-55
2024/01/25 06:48:33;;;;;;;6.75;2.10;;;20.20;36.30;;;;;;5115018;28;20036;-47
2024/01/25 06:51:00;;;;;;;6.60;2.42;;;20.20;36.30;;;;;;5115891;28;20023;-53
2024/01/25 06:53:26;;;;;;;6.25;2.42;;;20.20;36.30;;;;;;5114685;28;20067;-54
2024/01/25 06:55:52;;;;;;;6.95;2.17;;;20.20;36.30;;;;;;5115436;28;20028;-51
2024/01/25 06:58:18;;;;;;;7.00;2.70;;;20.20;36.30;;;;;;5115056;28;20024;-51
2024/01/25 07:00:46;;;;;;;4.30;2.10;;;20.20;36.30;;;;;;5115306;28;20024;-54
2024/01/25 07:03:12;;;;;;;5.80;2.13;;;20.20;36.20;;;;;;5096954;28;20024;-52
2024/01/25 07:05:38;;;;;;;6.10;2.17;;;20.20;36.30;;;;;;5114897;28;20034;-54
2024/01/25 07:08:04;;;;;;;7.60;2.50;;;20.20;36.30;;;;;;5114341;28;20032;-48
2024/01/25 07:10:31;;;;;;;5.25;2.03;;;20.20;36.30;;;;;;5115028;28;20048;-50
2024/01/25 07:12:57;;;;;;;6.30;2.13;;;20.20;36.30;;;;;;5095739;28;20036;-54
2024/01/25 07:15:23;;;;;;;6.07;2.10;;;20.10;36.20;;;;;;5114928;28;20038;-52
2024/01/25 07:17:49;;;;;;;6.70;2.10;;;20.20;36.30;;;;;;5114625;28;20020;-54
2024/01/25 07:20:14;;;;;;;6.50;2.42;;;20.20;36.40;;;;;;5116232;28;20049;-49
2024/01/25 07:22:40;;;;;;;6.55;2.28;;;20.20;36.40;;;;;;5114939;28;20027;-49
2024/01/25 07:25:06;;;;;;;7.25;2.45;;;20.10;36.30;;;;;;5114809;28;20027;-48
2024/01/25 07:27:32;;;;;;;7.15;2.30;;;20.20;36.40;;;;;;5096149;28;20433;-50
2024/01/25 07:29:58;;;;;;;8.15;2.40;;;20.10;36.30;;;;;;5115149;28;20110;-53
2024/01/25 07:32:24;;;;;;;7.93;2.55;;;20.10;36.30;;;;;;5114266;28;20084;-49
2024/01/25 07:34:50;;;;;;;7.07;2.42;;;20.10;36.30;;;;;;5114674;28;20019;-49
2024/01/25 07:37:18;;;;;;;6.32;2.47;;;20.10;36.30;;;;;;5112378;28;20034;-52
2024/01/25 07:39:44;;;;;;;6.65;2.25;;;20.10;36.30;;;;;;5113250;28;20047;-51
2024/01/25 07:42:12;;;;;;;6.55;2.50;;;20.10;36.30;;;;;;5113223;28;20535;-50
2024/01/25 07:44:38;;;;;;;5.07;1.92;;;20.10;36.40;;;;;;5096172;28;20144;-50
2024/01/25 07:47:04;;;;;;;9.15;2.75;;;20.10;36.50;;;;;;5114669;28;20031;-53
2024/01/25 07:49:30;;;;;;;7.65;2.63;;;20.10;36.50;;;;;;5115563;28;20042;-50
2024/01/25 07:51:56;;;;;;;7.45;2.67;;;20.10;36.50;;;;;;5115308;28;20027;-55
2024/01/25 07:54:22;;;;;;;7.28;2.40;;;20.20;36.50;;;;;;5114639;28;20042;-48
2024/01/25 07:56:48;;;;;;;6.68;2.40;;;20.30;36.60;;;;;;5115403;28;20023;-53
2024/01/25 07:59:14;;;;;;;4.85;2.10;;;20.30;36.50;;;;;;5115201;28;20447;-49
2024/01/25 08:01:40;;;;;;;6.32;2.38;;;20.30;36.50;;;;;;5112654;28;20023;-54
2024/01/25 08:04:06;;;;;;;7.38;2.58;;;20.40;36.50;;;;;;5096717;28;20438;-51
2024/01/25 08:06:31;;;;;;;6.00;2.08;;;20.50;36.40;;;;;;5115070;28;20492;-53
2024/01/25 08:08:57;;;;;;;6.35;2.25;;;20.60;36.30;;;;;;5113921;28;20110;-51
2024/01/25 08:11:23;;;;;;;6.53;2.30;;;20.60;36.20;;;;;;5096412;28;20031;-55
2024/01/25 08:13:49;;;;;;;6.72;2.47;;;20.70;36.20;;;;;;5114712;28;20088;-53
2024/01/25 08:16:21;;;;;;;6.60;2.63;;;20.80;36.10;;;;;;5114806;28;20135;-52
2024/01/25 08:18:48;;;;;;;6.15;2.30;;;20.80;36.10;;;;;;5079839;28;20023;-52
2024/01/25 08:21:14;;;;;;;7.05;2.60;;;20.90;36.00;;;;;;5114574;28;20454;-50
2024/01/25 08:23:40;;;;;;;8.60;2.75;;;21.00;35.90;;;;;;5114818;28;20027;-51
2024/01/25 08:26:09;;;;;;;5.40;2.13;;;21.10;35.90;;;;;;5113999;28;20104;-54
2024/01/25 08:28:45;;;;;;;5.85;2.45;;;21.20;35.90;;;;;;5114600;28;20073;-53
2024/01/25 08:31:11;;;;;;;9.70;3.33;;;21.20;35.70;;;;;;5111797;28;20111;-54
2024/01/25 08:33:41;;;;;;;6.70;2.63;;;21.30;35.70;;;;;;5096748;28;20462;-53
2024/01/25 08:36:07;;;;;;;6.72;2.47;;;21.40;35.70;;;;;;5114200;28;20335;-55
2024/01/25 08:38:33;;;;;;;6.85;2.60;;;21.40;35.60;;;;;;5095947;28;20023;-55
2024/01/25 08:40:59;;;;;;;6.25;2.80;;;21.50;35.60;;;;;;5114667;28;20043;-52
2024/01/25 08:43:25;;;;;;;5.50;2.03;;;21.50;35.40;;;;;;5113985;28;20036;-52
2024/01/25 08:45:50;;;;;;;7.18;2.40;;;21.60;35.40;;;;;;5114462;28;20031;-54
2024/01/25 08:48:16;;;;;;;7.40;3.17;;;21.70;35.40;;;;;;5113981;28;20130;-52
2024/01/25 08:50:42;;;;;;;5.78;2.30;;;21.70;35.30;;;;;;5114149;28;20038;-52
2024/01/25 08:53:08;;;;;;;6.80;2.78;;;21.80;35.30;;;;;;5113563;28;20494;-49
2024/01/25 08:55:34;;;;;;;8.23;2.63;;;21.80;35.20;;;;;;5113571;28;20028;-52
2024/01/25 08:57:59;;;;;;;5.43;2.38;;;21.90;35.20;;;;;;5113524;28;20031;-54
2024/01/25 09:00:25;;;;;;;7.78;2.40;;;21.90;35.10;;;;;;5113657;28;20039;-52
2024/01/25 09:02:51;;;;;;;7.38;2.47;;;21.90;35.10;;;;;;5113266;28;20422;-52
2024/01/25 09:05:17;;;;;;;6.53;2.05;;;22.00;35.10;;;;;;5113835;28;20031;-54
2024/01/25 09:07:42;;;;;;;6.70;2.65;;;22.00;35.00;;;;;;5114246;28;20400;-54
2024/01/25 09:10:08;;;;;;;7.47;2.35;;;22.00;35.60;;;;;;5113382;28;20024;-54
2024/01/25 09:12:35;;;;;;;7.90;2.45;;;22.00;34.90;;;;;;5113828;28;20031;-54
2024/01/25 09:15:01;;;;;;;6.57;2.42;;;22.00;34.90;;;;;;5114009;28;20474;-55
2024/01/25 09:17:27;;;;;;;6.40;2.50;;;22.00;34.90;;;;;;5112114;28;20337;-52
2024/01/25 09:19:53;;;;;;;6.88;2.63;;;22.00;34.90;;;;;;5096302;28;20035;-53
2024/01/25 09:22:19;;;;;;;7.50;2.38;;;22.00;34.80;;;;;;5114020;28;20454;-53
2024/01/25 09:24:46;;;;;;;9.40;2.63;;;22.00;34.80;;;;;;5113789;28;20063;-53
2024/01/25 09:27:13;;;;;;;6.03;2.75;;;22.00;34.90;;;;;;5113106;28;20035;-52
2024/01/25 09:29:42;;;;;;;6.85;2.95;;;22.00;34.90;;;;;;5112878;28;20028;-54
2024/01/25 09:32:08;;;;;;;6.30;2.70;;;22.00;34.80;;;;;;5113567;28;20028;-55
2024/01/25 09:34:38;;;;;;;7.32;2.72;;;22.00;34.80;;;;;;5113632;28;20451;-55
2024/01/25 09:37:04;;;;;;;6.07;2.65;;;22.00;34.80;;;;;;5113976;28;20020;-53
2024/01/25 09:39:32;;;;;;;7.90;2.55;;;22.00;34.90;;;;;;5114948;28;20028;-54
2024/01/25 09:41:57;;;;;;;7.70;3.13;;;22.00;34.90;;;;;;5089738;28;20128;-53
2024/01/25 09:44:23;;;;;;;6.70;2.42;;;22.00;34.90;;;;;;5076815;28;20024;-53
2024/01/25 09:46:50;;;;;;;7.30;2.58;;;22.00;34.80;;;;;;5094369;28;20128;-49
2024/01/25 09:49:17;;;;;;;9.05;2.72;;;22.00;34.90;;;;;;5094132;28;20069;-52
2024/01/25 09:51:43;;;;;;;7.22;2.60;;;22.00;34.90;;;;;;5078537;28;20025;-54
2024/01/25 09:54:13;;;;;;;5.80;2.10;;;21.90;34.90;;;;;;5074131;28;20028;-54
2024/01/25 09:56:42;;;;;;;5.25;2.25;;;21.90;34.90;;;;;;5074151;28;20444;-55
2024/01/25 09:59:08;;;;;;;6.72;2.65;;;21.90;34.90;;;;;;5056428;28;20021;-55
2024/01/25 10:01:34;;;;;;;6.47;2.33;;;21.90;35.00;;;;;;5074473;28;20029;-55
2024/01/25 10:04:00;;;;;;;6.78;2.30;;;21.90;35.00;;;;;;5074023;28;20123;-52
2024/01/25 10:06:26;;;;;;;5.47;2.45;;;21.90;35.00;;;;;;5076195;28;20032;-53
2024/01/25 10:08:53;;;;;;;6.78;2.40;;;21.90;35.00;;;;;;5077910;28;20455;-54
2024/01/25 10:11:19;;;;;;;7.80;2.65;;;21.90;35.00;;;;;;5078338;28;20024;-52
2024/01/25 10:13:46;;;;;;;6.57;2.40;;;21.80;34.90;;;;;;5077975;28;20408;-53
2024/01/25 10:16:14;;;;;;;5.65;2.55;;;21.80;35.00;;;;;;5077935;28;20134;-54
2024/01/25 10:18:42;;;;;;;8.45;3.20;;;21.80;35.00;;;;;;5084516;28;20103;-54
2024/01/25 10:21:10;;;;;;;8.05;2.78;;;21.80;35.00;;;;;;5097974;28;20085;-52
2024/01/25 10:23:35;;;;;;;7.40;2.53;;;21.80;35.00;;;;;;5098025;28;20050;-54
2024/01/25 10:26:02;;;;;;;7.63;2.42;;;21.80;35.10;;;;;;5097883;28;20028;-53
2024/01/25 10:28:30;;;;;;;5.82;2.50;;;21.80;35.10;;;;;;5095632;28;20132;-48
2024/01/25 10:31:01;;;;;;;8.75;3.15;;;21.80;35.20;;;;;;5096958;28;20032;-55
2024/01/25 10:33:27;;;;;;;6.75;2.47;;;21.70;35.20;;;;;;5098118;28;20028;-54
2024/01/25 10:36:03;;;;;;;7.32;2.63;;;21.70;35.20;;;;;;5097877;28;20093;-54
2024/01/25 10:38:33;;;;;;;5.85;1.95;;;21.70;35.20;;;;;;5098141;28;20028;-56
2024/01/25 10:41:01;;;;;;;6.20;2.67;;;21.70;35.30;;;;;;5079673;28;20047;-51
2024/01/25 10:43:30;;;;;;;6.03;2.42;;;21.70;35.30;;;;;;5097504;28;20042;-51
2024/01/25 10:45:58;;;;;;;6.55;2.50;;;21.70;35.40;;;;;;5096919;28;20439;-51
2024/01/25 10:48:34;;;;;;;5.80;2.38;;;21.70;35.40;;;;;;5097054;28;20409;-53
2024/01/25 10:51:02;;;;;;;4.95;2.08;;;21.70;35.40;;;;;;5097464;28;20398;-55
2024/01/25 10:53:35;;;;;;;7.43;2.80;;;21.70;35.50;;;;;;5097551;28;20043;-52
2024/01/25 10:56:02;;;;;;;6.45;2.63;;;21.70;35.50;;;;;;5097588;28;20162;-54
2024/01/25 10:58:33;;;;;;;6.60;2.47;;;21.70;35.50;;;;;;5097855;28;20039;-53
2024/01/25 11:01:13;;;;;;;8.98;2.85;;;21.60;35.50;;;;;;5096557;28;20039;-52
2024/01/25 11:03:40;;;;;;;4.85;2.00;;;21.70;35.60;;;;;;5096974;28;20062;-54
2024/01/25 11:06:10;;;;;;;5.88;2.42;;;21.60;35.50;;;;;;5097171;28;20400;-51
2024/01/25 11:08:43;;;;;;;8.70;2.80;;;21.60;35.60;;;;;;5093493;28;20115;-53
2024/01/25 11:11:12;;;;;;;6.00;2.50;;;21.60;35.60;;;;;;5095962;28;20024;-53
2024/01/25 11:13:40;;;;;;;7.10;2.92;;;21.60;35.70;;;;;;5095452;28;20055;-52
2024/01/25 11:16:16;;;;;;;4.82;2.28;;;21.60;35.70;;;;;;5095688;28;20105;-53
2024/01/25 11:18:51;;;;;;;5.82;2.20;;;21.60;35.80;;;;;;5099045;28;20032;-52
2024/01/25 11:21:37;;;;;;;6.80;2.97;;;21.60;35.90;;;;;;5097143;28;20103;-51
2024/01/25 11:24:04;;;;;;;5.65;2.28;;;21.60;35.90;;;;;;5096829;28;20056;-54
2024/01/25 11:26:34;;;;;;;8.60;2.60;;;21.60;36.00;;;;;;5096246;28;20107;-51
2024/01/25 11:29:00;;;;;;;5.13;2.15;;;21.60;36.00;;;;;;5078461;28;20412;-50
2024/01/25 11:31:28;;;;;;;6.97;2.67;;;21.50;36.00;;;;;;5096286;28;20024;-52
2024/01/25 11:34:03;;;;;;;6.00;2.38;;;21.60;36.10;;;;;;5095652;28;20055;-50
2024/01/25 11:36:29;;;;;;;6.63;2.40;;;21.60;36.00;;;;;;5096578;28;20036;-50
2024/01/25 11:38:55;;;;;;;5.65;2.33;;;21.60;36.10;;;;;;5095327;28;20070;-51
2024/01/25 11:41:21;;;;;;;10.07;2.80;;;21.50;36.10;;;;;;5095137;28;20336;-52
2024/01/25 11:43:50;;;;;;;6.82;3.00;;;21.50;36.10;;;;;;5094381;28;20027;-53
2024/01/25 11:46:17;;;;;;;4.30;1.92;;;21.50;36.10;;;;;;5094788;28;20043;-53
2024/01/25 11:48:42;;;;;;;6.75;2.47;;;21.50;36.20;;;;;;5094449;28;20062;-53
2024/01/25 11:51:11;;;;;;;7.82;2.50;;;21.50;36.30;;;;;;5093913;28;20023;-51
2024/01/25 11:53:38;;;;;;;5.38;2.13;;;21.50;36.30;;;;;;5082440;28;20062;-53
2024/01/25 11:56:07;;;;;;;5.75;2.63;;;21.50;36.30;;;;;;5095641;28;20089;-54
2024/01/25 11:58:34;;;;;;;7.72;2.67;;;21.50;36.40;;;;;;5094508;28;20035;-52
2024/01/25 12:01:03;;;;;;;7.90;2.55;;;21.50;36.40;;;;;;5095019;28;20427;-52
2024/01/25 12:03:29;;;;;;;5.72;2.30;;;21.50;36.40;;;;;;5093158;28;20063;-50
2024/01/25 12:05:58;;;;;;;8.43;3.30;;;21.50;36.40;;;;;;5092798;28;20477;-51
2024/01/25 12:08:24;;;;;;;6.85;2.80;;;21.50;36.50;;;;;;5076417;28;20494;-51
2024/01/25 12:10:49;;;;;;;6.18;2.22;;;21.50;36.40;;;;;;5093526;28;20052;-49
2024/01/25 12:13:16;;;;;;;7.05;2.35;;;21.50;36.50;;;;;;5093239;28;20366;-50
2024/01/25 12:15:42;;;;;;;5.88;2.38;;;21.50;36.50;;;;;;5093453;28;20024;-50
2024/01/25 12:18:09;;;;;;;6.80;2.58;;;21.50;36.50;;;;;;5092529;28;20035;-49
2024/01/25 12:20:36;;;;;;;6.50;2.58;;;21.50;36.50;;;;;;5093568;28;20035;-51
2024/01/25 12:23:02;;;;;;;6.53;2.40;;;21.50;36.50;;;;;;5091149;28;20034;-49
2024/01/25 12:25:28;;;;;;;5.45;2.25;;;21.50;37.10;;;;;;5093355;28;20024;-56
2024/01/25 12:27:54;;;;;;;7.85;2.20;;;21.50;36.50;;;;;;5092014;28;20040;-50
2024/01/25 12:30:19;;;;;;;7.75;2.65;;;21.50;36.50;;;;;;5092605;28;20028;-51
2024/01/25 12:32:49;;;;;;;6.35;2.20;;;21.40;36.50;;;;;;5092905;28;20139;-53
2024/01/25 12:35:15;;;;;;;5.53;2.20;;;21.50;36.50;;;;;;5092610;28;20062;-53
2024/01/25 12:37:40;;;;;;;6.40;2.28;;;21.50;36.50;;;;;;5092262;28;20103;-55
2024/01/25 12:40:07;;;;;;;5.63;2.47;;;21.40;37.10;;;;;;5092758;28;20438;-51
2024/01/25 12:42:33;;;;;;;7.45;2.95;;;21.50;36.60;;;;;;5092930;28;20048;-52